sensor_id;sensor_type;location;lat;lon;timestamp;P1;durP1;ratioP1;P2;durP2;ratioP2
71462;SDS011;59266;52.608;13.260;2023-04-08T00:00:27;26.77;;;10.20;;
71462;SDS011;59266;52.608;13.260;2023-04-08T00:02:57;29.48;;;12.68;;
71462;SDS011;59266;52.608;13.260;2023-04-08T00:05:23;27.27;;;10.82;;
71462;SDS011;59266;52.608;13.260;2023-04-08T00:07:50;30.27;;;10.68;;
71462;SDS011;59266;52.608;13.260;2023-04-08T00:10:18;32.03;;;11.52;;
71462;SDS011;59266;52.608;13.260;2023-04-08T00:12:45;32.75;;;12.18;;
71462;SDS011;59266;52.608;13.260;2023-04-08T00:15:13;31.33;;;11.75;;
71462;SDS011;59266;52.608;13.260;2023-04-08T00:17:40;30.63;;;12.00;;
71462;SDS011;59266;52.608;13.260;2023-04-08T00:20:07;29.15;;;11.23;;
71462;SDS011;59266;52.608;13.260;2023-04-08T00:22:34;31.15;;;11.48;;
71462;SDS011;59266;52.608;13.260;2023-04-08T00:25:02;31.50;;;11.48;;
71462;SDS011;59266;52.608;13.260;2023-04-08T00:27:32;32.33;;;12.50;;
71462;SDS011;59266;52.608;13.260;2023-04-08T00:29:58;28.92;;;12.50;;
71462;SDS011;59266;52.608;13.260;2023-04-08T00:32:25;33.30;;;12.52;;
71462;SDS011;59266;52.608;13.260;2023-04-08T00:34:52;33.95;;;12.98;;
71462;SDS011;59266;52.608;13.260;2023-04-08T00:37:19;36.63;;;13.57;;
71462;SDS011;59266;52.608;13.260;2023-04-08T00:39:47;37.03;;;12.98;;
71462;SDS011;59266;52.608;13.260;2023-04-08T00:42:13;35.05;;;11.63;;
71462;SDS011;59266;52.608;13.260;2023-04-08T00:44:40;32.53;;;12.52;;
71462;SDS011;59266;52.608;13.260;2023-04-08T00:47:10;38.55;;;12.90;;
71462;SDS011;59266;52.608;13.260;2023-04-08T00:49:41;33.13;;;12.90;;
71462;SDS011;59266;52.608;13.260;2023-04-08T00:52:08;35.67;;;11.95;;
71462;SDS011;59266;52.608;13.260;2023-04-08T00:54:35;32.72;;;12.55;;
71462;SDS011;59266;52.608;13.260;2023-04-08T00:57:06;35.55;;;13.50;;
71462;SDS011;59266;52.608;13.260;2023-04-08T00:59:33;43.03;;;14.57;;
71462;SDS011;59266;52.608;13.260;2023-04-08T01:02:11;39.17;;;13.75;;
71462;SDS011;59266;52.608;13.260;2023-04-08T01:05:14;37.92;;;14.27;;
71462;SDS011;59266;52.608;13.260;2023-04-08T01:07:49;33.53;;;12.77;;
71462;SDS011;59266;52.608;13.260;2023-04-08T01:10:25;39.92;;;14.65;;
71462;SDS011;59266;52.608;13.260;2023-04-08T01:12:59;40.53;;;14.13;;
71462;SDS011;59266;52.608;13.260;2023-04-08T01:15:34;41.88;;;13.48;;
71462;SDS011;59266;52.608;13.260;2023-04-08T01:18:04;37.42;;;12.73;;
71462;SDS011;59266;52.608;13.260;2023-04-08T01:20:33;41.55;;;14.52;;
71462;SDS011;59266;52.608;13.260;2023-04-08T01:25:31;35.65;;;14.23;;
71462;SDS011;59266;52.608;13.260;2023-04-08T01:27:59;39.30;;;13.80;;
71462;SDS011;59266;52.608;13.260;2023-04-08T01:30:30;35.92;;;13.43;;
71462;SDS011;59266;52.608;13.260;2023-04-08T01:32:58;44.03;;;14.43;;
71462;SDS011;59266;52.608;13.260;2023-04-08T01:35:26;38.63;;;13.65;;
71462;SDS011;59266;52.608;13.260;2023-04-08T01:37:53;39.10;;;13.90;;
71462;SDS011;59266;52.608;13.260;2023-04-08T01:40:20;37.53;;;13.07;;
71462;SDS011;59266;52.608;13.260;2023-04-08T01:42:47;36.30;;;13.10;;
71462;SDS011;59266;52.608;13.260;2023-04-08T01:45:16;43.50;;;14.90;;
71462;SDS011;59266;52.608;13.260;2023-04-08T01:47:44;43.35;;;14.98;;
71462;SDS011;59266;52.608;13.260;2023-04-08T01:50:15;43.53;;;13.38;;
71462;SDS011;59266;52.608;13.260;2023-04-08T01:52:45;43.95;;;14.52;;
71462;SDS011;59266;52.608;13.260;2023-04-08T01:55:14;37.85;;;13.52;;
71462;SDS011;59266;52.608;13.260;2023-04-08T01:57:43;38.33;;;12.63;;
71462;SDS011;59266;52.608;13.260;2023-04-08T02:00:14;37.80;;;13.65;;
71462;SDS011;59266;52.608;13.260;2023-04-08T02:02:43;35.15;;;12.57;;
71462;SDS011;59266;52.608;13.260;2023-04-08T02:05:13;36.35;;;12.88;;
71462;SDS011;59266;52.608;13.260;2023-04-08T02:07:40;39.63;;;14.52;;
71462;SDS011;59266;52.608;13.260;2023-04-08T02:10:07;39.67;;;13.82;;
71462;SDS011;59266;52.608;13.260;2023-04-08T02:12:33;35.65;;;13.27;;
71462;SDS011;59266;52.608;13.260;2023-04-08T02:15:00;34.65;;;13.32;;
71462;SDS011;59266;52.608;13.260;2023-04-08T02:17:30;41.45;;;13.43;;
71462;SDS011;59266;52.608;13.260;2023-04-08T02:20:09;33.75;;;13.48;;
71462;SDS011;59266;52.608;13.260;2023-04-08T02:25:13;36.85;;;13.57;;
71462;SDS011;59266;52.608;13.260;2023-04-08T02:27:42;41.65;;;14.25;;
71462;SDS011;59266;52.608;13.260;2023-04-08T02:30:11;35.15;;;13.80;;
71462;SDS011;59266;52.608;13.260;2023-04-08T02:32:38;37.53;;;13.27;;
71462;SDS011;59266;52.608;13.260;2023-04-08T02:35:06;35.20;;;12.82;;
71462;SDS011;59266;52.608;13.260;2023-04-08T02:37:37;40.63;;;14.23;;
71462;SDS011;59266;52.608;13.260;2023-04-08T02:40:09;34.50;;;13.52;;
71462;SDS011;59266;52.608;13.260;2023-04-08T02:42:48;36.63;;;12.68;;
71462;SDS011;59266;52.608;13.260;2023-04-08T02:45:14;38.35;;;12.60;;
71462;SDS011;59266;52.608;13.260;2023-04-08T02:47:41;37.47;;;12.93;;
71462;SDS011;59266;52.608;13.260;2023-04-08T02:50:08;39.88;;;13.18;;
71462;SDS011;59266;52.608;13.260;2023-04-08T02:52:38;42.83;;;12.48;;
71462;SDS011;59266;52.608;13.260;2023-04-08T02:55:06;40.20;;;13.20;;
71462;SDS011;59266;52.608;13.260;2023-04-08T03:00:05;36.88;;;12.48;;
71462;SDS011;59266;52.608;13.260;2023-04-08T03:02:32;36.78;;;13.63;;
71462;SDS011;59266;52.608;13.260;2023-04-08T03:04:59;34.33;;;12.85;;
71462;SDS011;59266;52.608;13.260;2023-04-08T03:07:25;39.00;;;12.50;;
71462;SDS011;59266;52.608;13.260;2023-04-08T03:09:53;41.58;;;13.38;;
71462;SDS011;59266;52.608;13.260;2023-04-08T03:12:22;40.47;;;13.43;;
71462;SDS011;59266;52.608;13.260;2023-04-08T03:14:49;42.83;;;13.57;;
71462;SDS011;59266;52.608;13.260;2023-04-08T03:17:16;38.65;;;11.95;;
71462;SDS011;59266;52.608;13.260;2023-04-08T03:19:43;36.00;;;13.38;;
71462;SDS011;59266;52.608;13.260;2023-04-08T03:22:09;33.53;;;12.38;;
71462;SDS011;59266;52.608;13.260;2023-04-08T03:24:36;46.70;;;13.85;;
71462;SDS011;59266;52.608;13.260;2023-04-08T03:27:03;38.22;;;13.93;;
71462;SDS011;59266;52.608;13.260;2023-04-08T03:29:29;42.60;;;13.77;;
71462;SDS011;59266;52.608;13.260;2023-04-08T03:31:59;38.90;;;13.52;;
71462;SDS011;59266;52.608;13.260;2023-04-08T03:34:28;39.55;;;13.43;;
71462;SDS011;59266;52.608;13.260;2023-04-08T03:36:55;37.92;;;13.65;;
71462;SDS011;59266;52.608;13.260;2023-04-08T03:39:22;37.17;;;13.18;;
71462;SDS011;59266;52.608;13.260;2023-04-08T03:41:52;41.85;;;14.48;;
71462;SDS011;59266;52.608;13.260;2023-04-08T03:44:21;41.65;;;14.80;;
71462;SDS011;59266;52.608;13.260;2023-04-08T03:46:50;43.00;;;13.90;;
71462;SDS011;59266;52.608;13.260;2023-04-08T03:49:17;44.33;;;13.20;;
71462;SDS011;59266;52.608;13.260;2023-04-08T03:51:44;38.97;;;13.85;;
71462;SDS011;59266;52.608;13.260;2023-04-08T03:54:10;36.13;;;12.73;;
71462;SDS011;59266;52.608;13.260;2023-04-08T03:56:37;40.00;;;13.48;;
71462;SDS011;59266;52.608;13.260;2023-04-08T03:59:03;40.72;;;12.55;;
71462;SDS011;59266;52.608;13.260;2023-04-08T04:01:30;40.70;;;14.20;;
71462;SDS011;59266;52.608;13.260;2023-04-08T04:03:57;37.90;;;12.82;;
71462;SDS011;59266;52.608;13.260;2023-04-08T04:06:24;42.35;;;13.77;;
71462;SDS011;59266;52.608;13.260;2023-04-08T04:08:54;49.38;;;14.77;;
71462;SDS011;59266;52.608;13.260;2023-04-08T04:11:21;37.67;;;13.95;;
71462;SDS011;59266;52.608;13.260;2023-04-08T04:13:49;47.75;;;13.38;;
71462;SDS011;59266;52.608;13.260;2023-04-08T04:16:16;46.28;;;13.07;;
71462;SDS011;59266;52.608;13.260;2023-04-08T04:18:43;43.58;;;14.05;;
71462;SDS011;59266;52.608;13.260;2023-04-08T04:21:10;41.03;;;13.45;;
71462;SDS011;59266;52.608;13.260;2023-04-08T04:23:40;37.50;;;12.50;;
71462;SDS011;59266;52.608;13.260;2023-04-08T04:26:09;38.30;;;13.30;;
71462;SDS011;59266;52.608;13.260;2023-04-08T04:28:36;39.60;;;13.43;;
71462;SDS011;59266;52.608;13.260;2023-04-08T04:31:03;41.22;;;11.90;;
71462;SDS011;59266;52.608;13.260;2023-04-08T04:33:30;38.95;;;12.98;;
71462;SDS011;59266;52.608;13.260;2023-04-08T04:36:00;36.28;;;13.35;;
71462;SDS011;59266;52.608;13.260;2023-04-08T04:38:27;41.30;;;13.63;;
71462;SDS011;59266;52.608;13.260;2023-04-08T04:40:56;38.50;;;14.60;;
71462;SDS011;59266;52.608;13.260;2023-04-08T04:43:24;42.35;;;13.73;;
71462;SDS011;59266;52.608;13.260;2023-04-08T04:45:51;41.80;;;13.13;;
71462;SDS011;59266;52.608;13.260;2023-04-08T04:48:17;40.42;;;13.60;;
71462;SDS011;59266;52.608;13.260;2023-04-08T04:50:53;38.97;;;13.82;;
71462;SDS011;59266;52.608;13.260;2023-04-08T04:53:20;39.72;;;13.73;;
71462;SDS011;59266;52.608;13.260;2023-04-08T04:55:49;36.47;;;13.23;;
71462;SDS011;59266;52.608;13.260;2023-04-08T04:58:16;40.17;;;13.38;;
71462;SDS011;59266;52.608;13.260;2023-04-08T05:00:43;40.70;;;14.35;;
71462;SDS011;59266;52.608;13.260;2023-04-08T05:03:15;37.65;;;13.25;;
71462;SDS011;59266;52.608;13.260;2023-04-08T05:05:42;46.53;;;13.43;;
71462;SDS011;59266;52.608;13.260;2023-04-08T05:08:09;41.35;;;13.70;;
71462;SDS011;59266;52.608;13.260;2023-04-08T05:10:35;42.17;;;14.07;;
71462;SDS011;59266;52.608;13.260;2023-04-08T05:13:02;36.35;;;13.50;;
71462;SDS011;59266;52.608;13.260;2023-04-08T05:15:31;39.70;;;13.65;;
71462;SDS011;59266;52.608;13.260;2023-04-08T05:17:57;39.38;;;13.85;;
71462;SDS011;59266;52.608;13.260;2023-04-08T05:20:26;39.50;;;12.52;;
71462;SDS011;59266;52.608;13.260;2023-04-08T05:22:52;38.03;;;14.00;;
71462;SDS011;59266;52.608;13.260;2023-04-08T05:25:19;41.05;;;14.07;;
71462;SDS011;59266;52.608;13.260;2023-04-08T05:27:50;40.92;;;13.55;;
71462;SDS011;59266;52.608;13.260;2023-04-08T05:30:18;35.40;;;13.27;;
71462;SDS011;59266;52.608;13.260;2023-04-08T05:32:44;44.30;;;14.07;;
71462;SDS011;59266;52.608;13.260;2023-04-08T05:35:16;37.15;;;13.90;;
71462;SDS011;59266;52.608;13.260;2023-04-08T05:37:42;43.80;;;13.68;;
71462;SDS011;59266;52.608;13.260;2023-04-08T05:40:09;38.83;;;14.10;;
71462;SDS011;59266;52.608;13.260;2023-04-08T05:42:35;34.53;;;13.50;;
71462;SDS011;59266;52.608;13.260;2023-04-08T05:45:02;39.75;;;15.70;;
71462;SDS011;59266;52.608;13.260;2023-04-08T05:47:35;36.00;;;14.02;;
71462;SDS011;59266;52.608;13.260;2023-04-08T05:50:04;37.67;;;13.70;;
71462;SDS011;59266;52.608;13.260;2023-04-08T05:52:32;42.03;;;13.30;;
71462;SDS011;59266;52.608;13.260;2023-04-08T05:54:58;37.80;;;12.77;;
71462;SDS011;59266;52.608;13.260;2023-04-08T05:57:25;44.42;;;14.55;;
71462;SDS011;59266;52.608;13.260;2023-04-08T05:59:53;37.13;;;14.48;;
71462;SDS011;59266;52.608;13.260;2023-04-08T06:02:23;44.78;;;15.00;;
71462;SDS011;59266;52.608;13.260;2023-04-08T06:04:49;36.97;;;14.25;;
71462;SDS011;59266;52.608;13.260;2023-04-08T06:07:16;39.05;;;14.02;;
71462;SDS011;59266;52.608;13.260;2023-04-08T06:09:43;39.22;;;13.52;;
71462;SDS011;59266;52.608;13.260;2023-04-08T06:12:10;37.95;;;13.25;;
71462;SDS011;59266;52.608;13.260;2023-04-08T06:14:38;37.45;;;14.75;;
71462;SDS011;59266;52.608;13.260;2023-04-08T06:17:07;39.45;;;14.10;;
71462;SDS011;59266;52.608;13.260;2023-04-08T06:19:34;41.88;;;14.10;;
71462;SDS011;59266;52.608;13.260;2023-04-08T06:22:01;41.42;;;14.05;;
71462;SDS011;59266;52.608;13.260;2023-04-08T06:24:28;36.25;;;13.57;;
71462;SDS011;59266;52.608;13.260;2023-04-08T06:26:55;38.20;;;14.63;;
71462;SDS011;59266;52.608;13.260;2023-04-08T06:29:21;41.10;;;14.70;;
71462;SDS011;59266;52.608;13.260;2023-04-08T06:31:49;44.38;;;14.48;;
71462;SDS011;59266;52.608;13.260;2023-04-08T06:34:16;38.25;;;13.95;;
71462;SDS011;59266;52.608;13.260;2023-04-08T06:36:43;45.03;;;15.13;;
71462;SDS011;59266;52.608;13.260;2023-04-08T06:39:10;37.85;;;13.43;;
71462;SDS011;59266;52.608;13.260;2023-04-08T06:41:37;41.25;;;14.52;;
71462;SDS011;59266;52.608;13.260;2023-04-08T06:44:03;41.00;;;15.23;;
71462;SDS011;59266;52.608;13.260;2023-04-08T06:46:30;40.42;;;14.55;;
71462;SDS011;59266;52.608;13.260;2023-04-08T06:48:58;41.10;;;14.98;;
71462;SDS011;59266;52.608;13.260;2023-04-08T06:51:26;38.33;;;14.50;;
71462;SDS011;59266;52.608;13.260;2023-04-08T06:53:53;42.33;;;15.27;;
71462;SDS011;59266;52.608;13.260;2023-04-08T06:56:20;43.35;;;14.63;;
71462;SDS011;59266;52.608;13.260;2023-04-08T06:58:49;44.33;;;14.68;;
71462;SDS011;59266;52.608;13.260;2023-04-08T07:01:16;45.65;;;14.07;;
71462;SDS011;59266;52.608;13.260;2023-04-08T07:03:43;41.47;;;14.50;;
71462;SDS011;59266;52.608;13.260;2023-04-08T07:06:09;42.63;;;15.68;;
71462;SDS011;59266;52.608;13.260;2023-04-08T07:08:36;42.05;;;14.10;;
71462;SDS011;59266;52.608;13.260;2023-04-08T07:11:04;42.13;;;15.43;;
71462;SDS011;59266;52.608;13.260;2023-04-08T07:13:30;47.05;;;15.18;;
71462;SDS011;59266;52.608;13.260;2023-04-08T07:15:57;42.95;;;14.13;;
71462;SDS011;59266;52.608;13.260;2023-04-08T07:18:25;38.88;;;14.90;;
71462;SDS011;59266;52.608;13.260;2023-04-08T07:20:52;40.80;;;15.35;;
71462;SDS011;59266;52.608;13.260;2023-04-08T07:23:19;44.05;;;15.50;;
71462;SDS011;59266;52.608;13.260;2023-04-08T07:25:46;42.75;;;15.90;;
71462;SDS011;59266;52.608;13.260;2023-04-08T07:28:15;39.03;;;15.05;;
71462;SDS011;59266;52.608;13.260;2023-04-08T07:30:42;38.53;;;15.93;;
71462;SDS011;59266;52.608;13.260;2023-04-08T07:33:15;38.50;;;14.68;;
71462;SDS011;59266;52.608;13.260;2023-04-08T07:35:43;39.35;;;14.50;;
71462;SDS011;59266;52.608;13.260;2023-04-08T07:38:11;43.35;;;14.95;;
71462;SDS011;59266;52.608;13.260;2023-04-08T07:40:38;39.78;;;15.32;;
71462;SDS011;59266;52.608;13.260;2023-04-08T07:43:05;37.47;;;14.63;;
71462;SDS011;59266;52.608;13.260;2023-04-08T07:45:31;37.80;;;14.90;;
71462;SDS011;59266;52.608;13.260;2023-04-08T07:47:58;36.50;;;15.20;;
71462;SDS011;59266;52.608;13.260;2023-04-08T07:50:28;36.67;;;14.48;;
71462;SDS011;59266;52.608;13.260;2023-04-08T07:52:54;35.63;;;15.15;;
71462;SDS011;59266;52.608;13.260;2023-04-08T07:55:22;37.53;;;14.73;;
71462;SDS011;59266;52.608;13.260;2023-04-08T07:57:48;36.20;;;14.75;;
71462;SDS011;59266;52.608;13.260;2023-04-08T08:00:16;39.40;;;14.13;;
71462;SDS011;59266;52.608;13.260;2023-04-08T08:02:47;46.35;;;16.48;;
71462;SDS011;59266;52.608;13.260;2023-04-08T08:05:14;35.97;;;14.55;;
71462;SDS011;59266;52.608;13.260;2023-04-08T08:07:41;41.08;;;15.75;;
71462;SDS011;59266;52.608;13.260;2023-04-08T08:10:08;39.13;;;15.00;;
71462;SDS011;59266;52.608;13.260;2023-04-08T08:12:35;36.88;;;15.25;;
71462;SDS011;59266;52.608;13.260;2023-04-08T08:15:02;42.33;;;14.98;;
71462;SDS011;59266;52.608;13.260;2023-04-08T08:17:29;43.33;;;16.15;;
71462;SDS011;59266;52.608;13.260;2023-04-08T08:19:59;38.72;;;15.48;;
71462;SDS011;59266;52.608;13.260;2023-04-08T08:22:26;37.20;;;15.10;;
71462;SDS011;59266;52.608;13.260;2023-04-08T08:24:56;46.78;;;15.15;;
71462;SDS011;59266;52.608;13.260;2023-04-08T08:27:23;40.70;;;15.57;;
71462;SDS011;59266;52.608;13.260;2023-04-08T08:29:49;37.33;;;15.48;;
71462;SDS011;59266;52.608;13.260;2023-04-08T08:32:19;38.80;;;15.75;;
71462;SDS011;59266;52.608;13.260;2023-04-08T08:34:46;33.45;;;14.20;;
71462;SDS011;59266;52.608;13.260;2023-04-08T08:37:12;35.58;;;15.05;;
71462;SDS011;59266;52.608;13.260;2023-04-08T08:39:39;39.03;;;15.65;;
71462;SDS011;59266;52.608;13.260;2023-04-08T08:42:06;38.50;;;15.35;;
71462;SDS011;59266;52.608;13.260;2023-04-08T08:44:33;39.53;;;15.38;;
71462;SDS011;59266;52.608;13.260;2023-04-08T08:46:59;37.20;;;14.45;;
71462;SDS011;59266;52.608;13.260;2023-04-08T08:49:27;38.65;;;14.68;;
71462;SDS011;59266;52.608;13.260;2023-04-08T08:51:53;38.40;;;16.15;;
71462;SDS011;59266;52.608;13.260;2023-04-08T08:54:20;37.35;;;15.48;;
71462;SDS011;59266;52.608;13.260;2023-04-08T08:56:47;34.42;;;15.32;;
71462;SDS011;59266;52.608;13.260;2023-04-08T08:59:14;39.00;;;16.55;;
71462;SDS011;59266;52.608;13.260;2023-04-08T09:01:40;41.38;;;16.38;;
71462;SDS011;59266;52.608;13.260;2023-04-08T09:04:08;36.47;;;15.95;;
71462;SDS011;59266;52.608;13.260;2023-04-08T09:06:37;35.72;;;14.90;;
71462;SDS011;59266;52.608;13.260;2023-04-08T09:09:04;32.63;;;14.10;;
71462;SDS011;59266;52.608;13.260;2023-04-08T09:11:40;33.95;;;13.57;;
71462;SDS011;59266;52.608;13.260;2023-04-08T09:16:57;36.35;;;14.48;;
71462;SDS011;59266;52.608;13.260;2023-04-08T09:19:27;37.22;;;14.48;;
71462;SDS011;59266;52.608;13.260;2023-04-08T09:22:06;37.42;;;14.52;;
71462;SDS011;59266;52.608;13.260;2023-04-08T09:24:36;33.55;;;13.88;;
71462;SDS011;59266;52.608;13.260;2023-04-08T09:27:06;37.95;;;15.80;;
71462;SDS011;59266;52.608;13.260;2023-04-08T09:29:34;36.60;;;15.05;;
71462;SDS011;59266;52.608;13.260;2023-04-08T09:32:05;40.42;;;14.95;;
71462;SDS011;59266;52.608;13.260;2023-04-08T09:34:32;39.22;;;15.73;;
71462;SDS011;59266;52.608;13.260;2023-04-08T09:37:00;35.83;;;15.48;;
71462;SDS011;59266;52.608;13.260;2023-04-08T09:39:27;40.15;;;15.05;;
71462;SDS011;59266;52.608;13.260;2023-04-08T09:41:57;36.58;;;15.02;;
71462;SDS011;59266;52.608;13.260;2023-04-08T09:44:27;33.45;;;14.52;;
71462;SDS011;59266;52.608;13.260;2023-04-08T09:47:09;38.60;;;16.33;;
71462;SDS011;59266;52.608;13.260;2023-04-08T09:49:45;34.58;;;14.75;;
71462;SDS011;59266;52.608;13.260;2023-04-08T09:55:01;35.95;;;14.85;;
71462;SDS011;59266;52.608;13.260;2023-04-08T09:57:51;35.70;;;14.88;;
71462;SDS011;59266;52.608;13.260;2023-04-08T10:00:29;34.13;;;14.50;;
71462;SDS011;59266;52.608;13.260;2023-04-08T10:03:09;30.88;;;13.88;;
71462;SDS011;59266;52.608;13.260;2023-04-08T10:05:44;33.72;;;14.10;;
71462;SDS011;59266;52.608;13.260;2023-04-08T10:08:19;30.42;;;13.50;;
71462;SDS011;59266;52.608;13.260;2023-04-08T10:10:47;33.88;;;14.77;;
71462;SDS011;59266;52.608;13.260;2023-04-08T10:13:14;29.85;;;13.23;;
71462;SDS011;59266;52.608;13.260;2023-04-08T10:15:41;30.52;;;13.73;;
71462;SDS011;59266;52.608;13.260;2023-04-08T10:23:05;26.77;;;12.60;;
71462;SDS011;59266;52.608;13.260;2023-04-08T10:25:34;27.85;;;13.00;;
71462;SDS011;59266;52.608;13.260;2023-04-08T10:33:51;27.10;;;12.95;;
71462;SDS011;59266;52.608;13.260;2023-04-08T10:36:08;28.20;;;13.52;;
71462;SDS011;59266;52.608;13.260;2023-04-08T10:38:37;26.33;;;12.32;;
71462;SDS011;59266;52.608;13.260;2023-04-08T10:41:06;26.85;;;12.60;;
71462;SDS011;59266;52.608;13.260;2023-04-08T10:43:36;26.08;;;12.65;;
71462;SDS011;59266;52.608;13.260;2023-04-08T10:46:02;26.27;;;12.27;;
71462;SDS011;59266;52.608;13.260;2023-04-08T10:48:30;25.00;;;12.02;;
71462;SDS011;59266;52.608;13.260;2023-04-08T10:50:58;26.70;;;12.40;;
71462;SDS011;59266;52.608;13.260;2023-04-08T10:53:33;21.13;;;10.65;;
71462;SDS011;59266;52.608;13.260;2023-04-08T10:56:04;25.25;;;12.20;;
71462;SDS011;59266;52.608;13.260;2023-04-08T10:58:47;26.23;;;12.98;;
71462;SDS011;59266;52.608;13.260;2023-04-08T11:01:18;24.73;;;11.90;;
71462;SDS011;59266;52.608;13.260;2023-04-08T11:03:45;24.40;;;11.10;;
71462;SDS011;59266;52.608;13.260;2023-04-08T11:06:14;27.77;;;12.15;;
71462;SDS011;59266;52.608;13.260;2023-04-08T11:08:41;23.42;;;11.73;;
71462;SDS011;59266;52.608;13.260;2023-04-08T11:11:09;24.50;;;11.93;;
71462;SDS011;59266;52.608;13.260;2023-04-08T11:13:38;23.35;;;12.05;;
71462;SDS011;59266;52.608;13.260;2023-04-08T11:16:13;22.20;;;11.50;;
71462;SDS011;59266;52.608;13.260;2023-04-08T11:18:43;25.17;;;12.13;;
71462;SDS011;59266;52.608;13.260;2023-04-08T11:21:11;21.48;;;10.75;;
71462;SDS011;59266;52.608;13.260;2023-04-08T11:23:38;25.42;;;12.85;;
71462;SDS011;59266;52.608;13.260;2023-04-08T11:26:04;21.92;;;12.10;;
71462;SDS011;59266;52.608;13.260;2023-04-08T11:28:31;23.30;;;11.52;;
71462;SDS011;59266;52.608;13.260;2023-04-08T11:30:59;20.25;;;10.68;;
71462;SDS011;59266;52.608;13.260;2023-04-08T11:33:32;21.08;;;10.95;;
71462;SDS011;59266;52.608;13.260;2023-04-08T11:36:00;20.55;;;10.73;;
71462;SDS011;59266;52.608;13.260;2023-04-08T11:38:29;19.92;;;10.45;;
71462;SDS011;59266;52.608;13.260;2023-04-08T11:40:56;20.75;;;10.20;;
71462;SDS011;59266;52.608;13.260;2023-04-08T11:43:24;22.20;;;11.20;;
71462;SDS011;59266;52.608;13.260;2023-04-08T11:45:54;21.13;;;10.80;;
71462;SDS011;59266;52.608;13.260;2023-04-08T11:48:24;21.50;;;11.43;;
71462;SDS011;59266;52.608;13.260;2023-04-08T11:51:09;21.05;;;11.48;;
71462;SDS011;59266;52.608;13.260;2023-04-08T11:53:40;20.60;;;11.10;;
71462;SDS011;59266;52.608;13.260;2023-04-08T11:56:16;22.13;;;10.85;;
71462;SDS011;59266;52.608;13.260;2023-04-08T11:58:47;20.40;;;11.23;;
71462;SDS011;59266;52.608;13.260;2023-04-08T12:01:14;21.35;;;11.05;;
71462;SDS011;59266;52.608;13.260;2023-04-08T12:03:57;20.77;;;11.30;;
71462;SDS011;59266;52.608;13.260;2023-04-08T12:08:54;22.73;;;11.15;;
71462;SDS011;59266;52.608;13.260;2023-04-08T12:11:24;21.27;;;11.38;;
71462;SDS011;59266;52.608;13.260;2023-04-08T12:13:54;21.38;;;10.90;;
71462;SDS011;59266;52.608;13.260;2023-04-08T12:16:22;22.52;;;11.45;;
71462;SDS011;59266;52.608;13.260;2023-04-08T12:18:48;20.63;;;11.07;;
71462;SDS011;59266;52.608;13.260;2023-04-08T12:21:18;18.63;;;9.95;;
71462;SDS011;59266;52.608;13.260;2023-04-08T12:23:54;21.95;;;11.60;;
71462;SDS011;59266;52.608;13.260;2023-04-08T12:26:20;21.08;;;11.02;;
71462;SDS011;59266;52.608;13.260;2023-04-08T12:28:47;21.10;;;11.32;;
71462;SDS011;59266;52.608;13.260;2023-04-08T12:31:16;22.55;;;12.10;;
71462;SDS011;59266;52.608;13.260;2023-04-08T12:33:48;20.88;;;11.18;;
71462;SDS011;59266;52.608;13.260;2023-04-08T12:36:15;21.55;;;10.88;;
71462;SDS011;59266;52.608;13.260;2023-04-08T12:38:45;20.50;;;11.48;;
71462;SDS011;59266;52.608;13.260;2023-04-08T12:41:12;20.85;;;11.82;;
71462;SDS011;59266;52.608;13.260;2023-04-08T12:43:38;22.77;;;11.60;;
71462;SDS011;59266;52.608;13.260;2023-04-08T12:46:05;21.40;;;10.88;;
71462;SDS011;59266;52.608;13.260;2023-04-08T12:48:32;19.38;;;10.63;;
71462;SDS011;59266;52.608;13.260;2023-04-08T12:50:59;20.13;;;10.98;;
71462;SDS011;59266;52.608;13.260;2023-04-08T12:53:25;19.80;;;11.40;;
71462;SDS011;59266;52.608;13.260;2023-04-08T12:55:52;17.35;;;10.00;;
71462;SDS011;59266;52.608;13.260;2023-04-08T12:58:25;18.92;;;10.95;;
71462;SDS011;59266;52.608;13.260;2023-04-08T13:00:52;19.92;;;11.15;;
71462;SDS011;59266;52.608;13.260;2023-04-08T13:03:25;18.98;;;10.27;;
71462;SDS011;59266;52.608;13.260;2023-04-08T13:05:53;19.00;;;10.30;;
71462;SDS011;59266;52.608;13.260;2023-04-08T13:08:20;18.30;;;9.95;;
71462;SDS011;59266;52.608;13.260;2023-04-08T13:10:50;17.98;;;9.90;;
71462;SDS011;59266;52.608;13.260;2023-04-08T13:13:16;17.45;;;10.27;;
71462;SDS011;59266;52.608;13.260;2023-04-08T13:15:43;19.38;;;10.07;;
71462;SDS011;59266;52.608;13.260;2023-04-08T13:18:10;17.30;;;9.60;;
71462;SDS011;59266;52.608;13.260;2023-04-08T13:20:37;17.88;;;10.40;;
71462;SDS011;59266;52.608;13.260;2023-04-08T13:23:03;20.65;;;10.52;;
71462;SDS011;59266;52.608;13.260;2023-04-08T13:25:30;17.52;;;9.82;;
71462;SDS011;59266;52.608;13.260;2023-04-08T13:27:56;18.83;;;10.75;;
71462;SDS011;59266;52.608;13.260;2023-04-08T13:30:23;16.92;;;10.30;;
71462;SDS011;59266;52.608;13.260;2023-04-08T13:32:50;18.52;;;10.40;;
71462;SDS011;59266;52.608;13.260;2023-04-08T13:35:20;18.73;;;10.10;;
71462;SDS011;59266;52.608;13.260;2023-04-08T13:37:47;18.05;;;10.18;;
71462;SDS011;59266;52.608;13.260;2023-04-08T13:40:13;19.88;;;10.52;;
71462;SDS011;59266;52.608;13.260;2023-04-08T13:42:44;18.58;;;10.52;;
71462;SDS011;59266;52.608;13.260;2023-04-08T13:45:13;18.42;;;10.20;;
71462;SDS011;59266;52.608;13.260;2023-04-08T13:47:43;20.48;;;10.85;;
71462;SDS011;59266;52.608;13.260;2023-04-08T13:50:10;21.23;;;10.43;;
71462;SDS011;59266;52.608;13.260;2023-04-08T13:52:37;18.80;;;9.95;;
71462;SDS011;59266;52.608;13.260;2023-04-08T13:55:04;18.52;;;11.20;;
71462;SDS011;59266;52.608;13.260;2023-04-08T13:57:31;20.98;;;10.82;;
71462;SDS011;59266;52.608;13.260;2023-04-08T13:59:57;20.95;;;11.43;;
71462;SDS011;59266;52.608;13.260;2023-04-08T14:02:24;20.13;;;11.23;;
71462;SDS011;59266;52.608;13.260;2023-04-08T14:04:51;16.58;;;9.70;;
71462;SDS011;59266;52.608;13.260;2023-04-08T14:07:18;20.35;;;11.15;;
71462;SDS011;59266;52.608;13.260;2023-04-08T14:09:46;18.92;;;10.25;;
71462;SDS011;59266;52.608;13.260;2023-04-08T14:12:13;18.38;;;10.32;;
71462;SDS011;59266;52.608;13.260;2023-04-08T14:14:42;15.20;;;9.43;;
71462;SDS011;59266;52.608;13.260;2023-04-08T14:17:09;18.75;;;9.95;;
71462;SDS011;59266;52.608;13.260;2023-04-08T14:19:36;17.73;;;9.40;;
71462;SDS011;59266;52.608;13.260;2023-04-08T14:22:02;14.75;;;8.35;;
71462;SDS011;59266;52.608;13.260;2023-04-08T14:24:29;16.27;;;10.25;;
71462;SDS011;59266;52.608;13.260;2023-04-08T14:26:57;16.38;;;9.43;;
71462;SDS011;59266;52.608;13.260;2023-04-08T14:29:27;16.48;;;9.75;;
71462;SDS011;59266;52.608;13.260;2023-04-08T14:31:56;18.38;;;10.95;;
71462;SDS011;59266;52.608;13.260;2023-04-08T14:34:23;15.30;;;9.23;;
71462;SDS011;59266;52.608;13.260;2023-04-08T14:36:50;17.67;;;10.30;;
71462;SDS011;59266;52.608;13.260;2023-04-08T14:39:16;17.52;;;10.02;;
71462;SDS011;59266;52.608;13.260;2023-04-08T14:41:46;15.70;;;9.55;;